Time;durP1;ratioP1;P1;durP2;ratioP2;P2;SDS_P1;SDS_P2;PMS_P1;PMS_P2;Temp;Humidity;BMP_temperature;BMP_pressure;BME280_temperature;BME280_humidity;BME280_pressure;Samples;Min_cycle;Max_cycle;Signal;HPM_P1;HPM_P2
2022/03/12 00:01:37;;;;;;;2.70;0.70;;;24.00;99.90;;;;;;5076309;28;20226;-80
2022/03/12 00:04:08;;;;;;;4.15;0.90;;;24.00;99.90;;;;;;5076701;28;20554;-82
2022/03/12 00:06:39;;;;;;;5.25;0.90;;;24.10;99.90;;;;;;5079601;28;20192;-83
2022/03/12 00:09:10;;;;;;;5.10;0.80;;;24.00;99.90;;;;;;5096142;28;20223;-81
2022/03/12 00:11:50;;;;;;;4.57;0.85;;;24.00;99.90;;;;;;5096508;28;20636;-82
2022/03/12 00:14:23;;;;;;;3.90;0.80;;;24.20;99.90;;;;;;5096470;28;20712;-81
2022/03/12 00:16:54;;;;;;;3.85;0.70;;;24.30;99.90;;;;;;5096457;28;20188;-82
2022/03/12 00:19:24;;;;;;;3.08;0.70;;;24.30;99.90;;;;;;5096303;28;20679;-80
2022/03/12 00:21:55;;;;;;;4.13;0.70;;;24.40;99.90;;;;;;5096184;28;20192;-81
2022/03/12 00:24:27;;;;;;;2.88;0.60;;;24.50;99.90;;;;;;5096415;28;20199;-81
2022/03/12 00:26:58;;;;;;;3.58;0.80;;;24.40;99.90;;;;;;5096256;28;20197;-80
2022/03/12 00:29:31;;;;;;;5.50;0.70;;;24.10;99.90;;;;;;5096525;28;20245;-83
2022/03/12 00:32:03;;;;;;;4.38;0.70;;;24.10;99.90;;;;;;5096185;28;20189;-81
2022/03/12 00:34:34;;;;;;;5.10;0.70;;;24.10;99.90;;;;;;5095919;28;20215;-81
2022/03/12 00:37:04;;;;;;;2.55;0.52;;;24.40;99.90;;;;;;5095885;28;20227;-82
2022/03/12 00:39:35;;;;;;;2.95;0.50;;;24.60;99.90;;;;;;5095744;28;20223;-81
2022/03/12 00:42:06;;;;;;;2.80;0.60;;;24.80;99.90;;;;;;5095989;28;20188;-81
2022/03/12 00:44:38;;;;;;;4.30;1.00;;;25.00;99.90;;;;;;5095883;28;20192;-84
2022/03/12 00:47:09;;;;;;;3.90;0.73;;;25.10;99.90;;;;;;5095841;28;20193;-81
2022/03/12 00:49:40;;;;;;;2.63;0.65;;;25.20;99.90;;;;;;5095498;28;20713;-82
2022/03/12 00:52:11;;;;;;;3.03;0.90;;;25.10;99.90;;;;;;5095673;28;20184;-81
2022/03/12 00:54:41;;;;;;;5.15;0.90;;;25.10;99.90;;;;;;5095728;28;20636;-81
2022/03/12 00:57:13;;;;;;;3.95;0.60;;;25.00;99.90;;;;;;5095749;28;20196;-82
2022/03/12 00:59:46;;;;;;;3.63;0.50;;;25.00;99.90;;;;;;5094512;28;20217;-84
2022/03/12 01:02:18;;;;;;;4.00;1.00;;;25.20;99.90;;;;;;5095501;28;20257;-81
2022/03/12 01:04:50;;;;;;;3.60;1.00;;;25.40;99.90;;;;;;5095289;28;20659;-83
2022/03/12 01:07:21;;;;;;;2.67;0.70;;;25.20;99.90;;;;;;5095018;28;20912;-82
2022/03/12 01:09:52;;;;;;;5.50;0.85;;;24.90;99.90;;;;;;5095232;28;20184;-81
2022/03/12 01:12:23;;;;;;;3.45;0.70;;;25.00;99.90;;;;;;5095376;28;20189;-82
2022/03/12 01:14:56;;;;;;;6.07;0.77;;;24.80;99.90;;;;;;5095260;28;20709;-82
2022/03/12 01:17:26;;;;;;;4.07;0.60;;;24.70;99.90;;;;;;5095073;28;20640;-84
2022/03/12 01:19:57;;;;;;;4.80;0.80;;;24.70;99.90;;;;;;5094185;28;20269;-82
2022/03/12 01:22:30;;;;;;;3.80;0.80;;;24.70;99.90;;;;;;5095126;28;20192;-84
2022/03/12 01:25:00;;;;;;;3.08;0.65;;;24.70;99.90;;;;;;5094994;28;20231;-82
2022/03/12 01:27:34;;;;;;;3.72;0.88;;;24.60;99.90;;;;;;5095095;28;20199;-87
2022/03/12 01:30:09;;;;;;;2.65;0.80;;;24.50;99.90;;;;;;5094917;28;20636;-81
2022/03/12 01:32:40;;;;;;;1.83;0.50;;;24.60;99.90;;;;;;5094685;28;20192;-82
2022/03/12 01:35:11;;;;;;;7.43;0.95;;;24.70;99.90;;;;;;5094713;28;20192;-81
2022/03/12 01:37:42;;;;;;;3.05;0.70;;;24.80;99.90;;;;;;5094582;28;20220;-84
2022/03/12 01:40:13;;;;;;;6.07;1.02;;;24.80;99.90;;;;;;5094598;28;20553;-81
2022/03/12 01:42:44;;;;;;;5.88;0.98;;;24.70;99.90;;;;;;5094715;28;20188;-82
2022/03/12 01:45:26;;;;;;;2.05;0.60;;;24.60;99.90;;;;;;5094608;28;20188;-81
2022/03/12 01:47:58;;;;;;;4.97;0.77;;;24.60;99.90;;;;;;5094751;28;20192;-82
2022/03/12 01:50:31;;;;;;;3.70;0.65;;;24.50;99.90;;;;;;5094604;28;20200;-82
2022/03/12 01:53:04;;;;;;;5.60;0.70;;;24.30;99.90;;;;;;5094585;28;20190;-80
2022/03/12 01:55:39;;;;;;;5.15;0.68;;;24.40;99.90;;;;;;5094459;28;20196;-83
2022/03/12 01:58:11;;;;;;;3.88;0.60;;;24.60;99.90;;;;;;5094460;28;20188;-81
2022/03/12 02:00:49;;;;;;;3.58;0.80;;;25.00;99.90;;;;;;5094281;28;20216;-82
2022/03/12 02:03:23;;;;;;;1.77;0.40;;;25.10;99.90;;;;;;5094154;28;20196;-81
2022/03/12 02:05:56;;;;;;;5.28;0.57;;;25.20;99.90;;;;;;5094245;28;20647;-85
2022/03/12 02:08:27;;;;;;;2.55;0.60;;;25.30;99.90;;;;;;5093925;28;20257;-83
2022/03/12 02:10:59;;;;;;;5.20;0.55;;;25.30;99.90;;;;;;5094060;28;20242;-83
2022/03/12 02:13:33;;;;;;;6.50;0.50;;;25.50;99.90;;;;;;5094203;28;20184;-86
2022/03/12 02:16:11;;;;;;;4.78;0.50;;;25.40;99.90;;;;;;5094354;28;20265;-82
2022/03/12 02:18:48;;;;;;;3.83;0.45;;;25.40;99.90;;;;;;5093984;28;20192;-83
2022/03/12 02:21:31;;;;;;;3.65;0.50;;;25.40;99.90;;;;;;5094229;28;20279;-86
2022/03/12 02:24:05;;;;;;;3.08;0.60;;;25.60;99.90;;;;;;5094278;28;20619;-90
2022/03/12 02:26:36;;;;;;;2.80;0.60;;;25.60;99.90;;;;;;5094121;28;20195;-91
2022/03/12 02:29:12;;;;;;;5.05;0.70;;;25.40;99.90;;;;;;5094809;28;20204;-85
2022/03/12 02:31:44;;;;;;;2.20;0.50;;;25.20;99.90;;;;;;5094485;28;20188;-89
2022/03/12 02:34:19;;;;;;;5.80;0.80;;;25.10;99.90;;;;;;5094236;28;20636;-90
2022/03/12 02:36:50;;;;;;;2.30;0.60;;;24.90;99.90;;;;;;5093914;28;20599;-87
2022/03/12 02:39:24;;;;;;;4.45;0.60;;;24.80;99.90;;;;;;5093692;28;20215;-84
2022/03/12 02:41:58;;;;;;;3.80;0.63;;;25.00;99.90;;;;;;5093758;28;20191;-87
2022/03/12 02:44:29;;;;;;;3.38;0.50;;;25.00;99.90;;;;;;5093846;28;20188;-84
2022/03/12 02:47:15;;;;;;;4.03;0.52;;;25.20;99.90;;;;;;5093505;28;20203;-89
2022/03/12 02:49:50;;;;;;;4.63;0.60;;;25.30;99.90;;;;;;5094185;28;20190;-94
2022/03/12 02:52:21;;;;;;;1.83;0.50;;;25.40;99.90;;;;;;5093758;28;20184;-82
2022/03/12 02:54:55;;;;;;;5.57;0.50;;;25.40;99.90;;;;;;5093726;28;20188;-83
2022/03/12 02:57:26;;;;;;;3.05;0.80;;;25.40;99.90;;;;;;5094024;28;20241;-88
2022/03/12 03:00:04;;;;;;;3.47;0.52;;;25.40;99.90;;;;;;5093322;28;20585;-85
2022/03/12 03:02:39;;;;;;;3.50;0.52;;;25.40;99.90;;;;;;5093556;28;20188;-86
2022/03/12 03:05:16;;;;;;;2.53;0.60;;;25.30;99.90;;;;;;5093471;28;20245;-85
2022/03/12 03:07:47;;;;;;;2.83;0.73;;;25.40;99.90;;;;;;5093095;28;20212;-81
2022/03/12 03:10:34;;;;;;;3.28;0.63;;;25.30;99.90;;;;;;5093239;28;20184;-82
2022/03/12 03:13:37;;;;;;;2.35;0.57;;;25.30;99.90;;;;;;5093245;28;20233;-86
2022/03/12 03:16:11;;;;;;;2.25;0.50;;;25.20;99.90;;;;;;5093132;28;20257;-85
2022/03/12 03:18:43;;;;;;;2.30;0.40;;;25.30;99.90;;;;;;5093178;28;20199;-82
2022/03/12 03:21:16;;;;;;;6.47;0.80;;;25.30;99.90;;;;;;5093476;28;20192;-87
2022/03/12 03:23:47;;;;;;;1.90;0.50;;;25.40;99.90;;;;;;5095579;28;20211;-92
2022/03/12 03:26:37;;;;;;;4.68;0.68;;;25.30;99.90;;;;;;5098260;28;20257;-90
2022/03/12 03:29:08;;;;;;;2.35;0.60;;;25.20;99.90;;;;;;5098180;28;20202;-87
2022/03/12 03:31:39;;;;;;;3.65;0.60;;;25.40;99.90;;;;;;5098016;28;20539;-88
2022/03/12 03:34:12;;;;;;;6.93;0.60;;;25.40;99.90;;;;;;5097987;28;20693;-86
2022/03/12 03:36:43;;;;;;;3.63;0.50;;;25.40;99.90;;;;;;5097314;28;20314;-84
2022/03/12 03:39:14;;;;;;;3.83;0.60;;;25.20;99.90;;;;;;5096980;28;20223;-84
2022/03/12 03:41:47;;;;;;;2.40;0.50;;;25.10;99.90;;;;;;5097098;28;20188;-83
2022/03/12 03:44:22;;;;;;;2.35;0.60;;;25.10;99.90;;;;;;5096871;28;20274;-85
2022/03/12 03:46:54;;;;;;;1.85;0.55;;;25.10;99.90;;;;;;5096976;28;20191;-81
2022/03/12 03:49:25;;;;;;;2.63;0.38;;;25.20;99.90;;;;;;5096918;28;20197;-82
2022/03/12 03:51:58;;;;;;;1.95;0.60;;;25.10;99.90;;;;;;5096940;28;20609;-83
2022/03/12 03:54:29;;;;;;;2.72;0.43;;;25.10;99.90;;;;;;5097203;28;20185;-80
2022/03/12 03:57:02;;;;;;;3.67;0.60;;;25.20;99.90;;;;;;5096842;28;20644;-83
2022/03/12 03:59:32;;;;;;;4.05;0.50;;;25.00;99.90;;;;;;5096377;28;20220;-80
2022/03/12 04:02:03;;;;;;;1.70;0.50;;;25.20;99.90;;;;;;5096683;28;20249;-83
2022/03/12 04:04:36;;;;;;;2.80;0.60;;;25.30;99.90;;;;;;5096665;28;20561;-84
2022/03/12 04:07:10;;;;;;;0.68;0.40;;;25.10;99.90;;;;;;5096253;28;20198;-85
2022/03/12 04:09:40;;;;;;;2.75;0.43;;;25.00;99.90;;;;;;5093604;28;20193;-83
2022/03/12 04:12:13;;;;;;;1.52;0.40;;;25.00;99.90;;;;;;5096301;28;20528;-85
2022/03/12 04:14:44;;;;;;;2.00;0.63;;;25.10;99.90;;;;;;5096396;28;20193;-84
2022/03/12 04:17:17;;;;;;;7.43;0.70;;;25.20;99.90;;;;;;5096457;28;20200;-85
2022/03/12 04:19:47;;;;;;;1.02;0.43;;;25.10;99.90;;;;;;5096196;28;20269;-85
2022/03/12 04:22:20;;;;;;;2.88;0.60;;;25.10;99.90;;;;;;5096475;28;20231;-85
2022/03/12 04:24:50;;;;;;;3.63;0.77;;;25.10;99.90;;;;;;5096474;28;20644;-90
2022/03/12 04:27:23;;;;;;;1.42;0.47;;;25.10;99.90;;;;;;5096136;28;20242;-87
2022/03/12 04:29:53;;;;;;;2.88;0.38;;;25.00;99.90;;;;;;5076527;28;20193;-87
2022/03/12 04:32:24;;;;;;;2.42;0.50;;;24.80;99.90;;;;;;5083683;28;20560;-90
2022/03/12 04:34:54;;;;;;;2.90;0.63;;;25.00;99.90;;;;;;5095690;28;20192;-84
2022/03/12 04:37:25;;;;;;;2.42;0.40;;;25.00;99.90;;;;;;5096088;28;20706;-84
2022/03/12 04:39:56;;;;;;;3.38;0.60;;;24.90;99.90;;;;;;5095723;28;20212;-82
2022/03/12 04:42:29;;;;;;;3.67;0.68;;;24.80;99.90;;;;;;5095696;28;20188;-83
2022/03/12 04:44:59;;;;;;;1.35;0.50;;;24.80;99.90;;;;;;5095761;28;20226;-81
2022/03/12 04:47:30;;;;;;;3.60;0.73;;;24.60;99.90;;;;;;5095840;28;20192;-84
2022/03/12 04:50:02;;;;;;;3.20;0.38;;;24.50;99.90;;;;;;5095620;28;20200;-82
2022/03/12 04:52:34;;;;;;;3.25;0.70;;;24.60;99.90;;;;;;5095742;28;20697;-79
2022/03/12 04:55:10;;;;;;;3.05;0.40;;;24.70;99.90;;;;;;5095678;28;20188;-81
2022/03/12 04:57:43;;;;;;;3.53;0.57;;;24.70;99.90;;;;;;5095445;28;20245;-82
2022/03/12 05:00:17;;;;;;;2.38;0.50;;;24.60;99.90;;;;;;5095420;28;20212;-82
2022/03/12 05:02:49;;;;;;;2.88;0.65;;;24.60;99.90;;;;;;5095643;28;20224;-81
2022/03/12 05:05:19;;;;;;;3.38;0.47;;;24.50;99.90;;;;;;5095558;28;20192;-80
2022/03/12 05:07:51;;;;;;;3.50;0.73;;;24.50;99.90;;;;;;5095053;28;20212;-82
2022/03/12 05:10:24;;;;;;;3.85;0.57;;;24.50;99.90;;;;;;5095103;28;20196;-83
2022/03/12 05:13:00;;;;;;;2.25;0.45;;;24.50;99.90;;;;;;5095392;28;20189;-82
2022/03/12 05:15:37;;;;;;;2.65;0.43;;;24.40;99.90;;;;;;5075076;28;20189;-79
2022/03/12 05:18:09;;;;;;;2.47;0.35;;;24.50;99.90;;;;;;5074938;28;20199;-80
2022/03/12 05:20:40;;;;;;;4.32;0.50;;;24.40;99.90;;;;;;5074886;28;20224;-81
2022/03/12 05:23:11;;;;;;;3.92;0.40;;;24.50;99.90;;;;;;5074895;28;20189;-81
2022/03/12 05:25:43;;;;;;;3.45;0.50;;;24.40;99.90;;;;;;5079313;28;20661;-81
2022/03/12 05:28:17;;;;;;;3.10;0.70;;;24.50;99.90;;;;;;5095312;28;20769;-78
2022/03/12 05:30:49;;;;;;;2.85;0.47;;;24.40;99.90;;;;;;5095075;28;20304;-81
2022/03/12 05:33:21;;;;;;;4.55;0.40;;;24.50;99.90;;;;;;5095006;28;20192;-80
2022/03/12 05:35:54;;;;;;;2.97;0.40;;;24.40;99.90;;;;;;5094633;28;20188;-82
2022/03/12 05:38:25;;;;;;;2.55;0.43;;;24.20;99.90;;;;;;5094700;28;20192;-80
2022/03/12 05:40:56;;;;;;;3.50;0.68;;;24.20;99.90;;;;;;5094494;28;20311;-80
2022/03/12 05:43:33;;;;;;;2.42;0.57;;;24.20;99.90;;;;;;5094815;28;20200;-80
2022/03/12 05:46:03;;;;;;;3.20;0.60;;;24.10;99.90;;;;;;5094416;28;20184;-81
2022/03/12 05:48:34;;;;;;;3.33;0.50;;;24.00;99.90;;;;;;5094712;28;20635;-82
2022/03/12 05:51:08;;;;;;;1.85;0.60;;;24.10;99.90;;;;;;5094675;28;20195;-81
2022/03/12 05:53:39;;;;;;;1.90;0.43;;;24.00;99.90;;;;;;5094506;28;20213;-84
2022/03/12 05:56:09;;;;;;;3.47;0.60;;;24.00;99.90;;;;;;5094607;28;20200;-81
2022/03/12 05:58:42;;;;;;;4.50;0.50;;;23.90;99.90;;;;;;5094425;28;20238;-80
2022/03/12 06:01:13;;;;;;;1.85;0.47;;;23.90;99.90;;;;;;5094390;28;20262;-81
2022/03/12 06:03:43;;;;;;;2.53;0.60;;;23.90;99.90;;;;;;5094342;28;20197;-81
2022/03/12 06:06:14;;;;;;;2.33;0.50;;;23.90;99.90;;;;;;5094427;28;20199;-80
2022/03/12 06:08:45;;;;;;;1.77;0.47;;;23.80;99.90;;;;;;5093775;28;20560;-80
2022/03/12 06:11:15;;;;;;;3.85;0.70;;;23.80;99.90;;;;;;5094227;28;20253;-80
2022/03/12 06:14:00;;;;;;;3.45;0.50;;;23.80;99.90;;;;;;5094213;28;20233;-79
2022/03/12 06:16:31;;;;;;;4.32;0.57;;;23.80;99.90;;;;;;5094284;28;20191;-79
2022/03/12 06:19:02;;;;;;;1.70;0.55;;;23.70;99.90;;;;;;5093870;28;20196;-82
2022/03/12 06:21:33;;;;;;;3.85;0.40;;;23.70;99.90;;;;;;5093793;28;20290;-81
2022/03/12 06:24:04;;;;;;;3.00;0.40;;;23.70;99.90;;;;;;5093356;28;20188;-81
2022/03/12 06:26:36;;;;;;;2.38;0.50;;;23.80;99.90;;;;;;5093938;28;20184;-79
2022/03/12 06:29:13;;;;;;;2.45;0.40;;;23.80;99.90;;;;;;5093974;28;20188;-80
2022/03/12 06:31:45;;;;;;;2.45;0.60;;;23.80;99.90;;;;;;5093312;28;20188;-81
2022/03/12 06:34:15;;;;;;;3.15;0.50;;;23.70;99.90;;;;;;5093844;28;20644;-82
2022/03/12 06:36:46;;;;;;;2.17;0.30;;;23.70;99.90;;;;;;5093433;28;20575;-80
2022/03/12 06:39:17;;;;;;;3.05;0.50;;;23.70;99.90;;;;;;5093395;28;20227;-79
2022/03/12 06:41:48;;;;;;;2.38;0.50;;;23.70;99.90;;;;;;5093613;28;20212;-79
2022/03/12 06:44:21;;;;;;;1.65;0.50;;;23.60;99.90;;;;;;5093527;28;20188;-82
2022/03/12 06:46:51;;;;;;;2.25;0.40;;;23.60;99.90;;;;;;5093618;28;20568;-79
2022/03/12 06:49:22;;;;;;;2.45;0.50;;;23.60;99.90;;;;;;5093068;28;20640;-78
2022/03/12 06:51:53;;;;;;;4.20;0.50;;;23.70;99.90;;;;;;5092821;28;20185;-78
2022/03/12 06:54:25;;;;;;;2.33;0.50;;;23.70;99.90;;;;;;5092819;28;20195;-80
2022/03/12 06:56:56;;;;;;;2.78;0.50;;;23.70;99.90;;;;;;5092943;28;20188;-79
2022/03/12 06:59:28;;;;;;;9.88;6.53;;;23.50;99.90;;;;;;5092435;28;20184;-80
2022/03/12 07:01:59;;;;;;;2.83;1.10;;;23.40;99.90;;;;;;5092815;28;20212;-80
2022/03/12 07:04:30;;;;;;;3.58;0.68;;;23.40;99.90;;;;;;5093137;28;20184;-81
2022/03/12 07:07:01;;;;;;;2.90;0.70;;;23.40;99.90;;;;;;5092284;28;20196;-80
2022/03/12 07:09:32;;;;;;;3.35;0.50;;;23.40;99.90;;;;;;5090018;28;20185;-79
2022/03/12 07:12:03;;;;;;;1.67;0.60;;;23.30;99.90;;;;;;5092897;28;20188;-80
2022/03/12 07:14:36;;;;;;;1.70;0.40;;;23.20;99.90;;;;;;5092233;28;20184;-79
2022/03/12 07:17:07;;;;;;;3.38;0.55;;;23.10;99.90;;;;;;5090050;28;20220;-80
2022/03/12 07:19:38;;;;;;;2.97;0.60;;;23.00;99.90;;;;;;5089185;28;20185;-79
2022/03/12 07:22:08;;;;;;;2.85;0.57;;;23.00;99.90;;;;;;5093031;28;20575;-77
2022/03/12 07:24:39;;;;;;;1.85;0.60;;;23.00;99.90;;;;;;5092952;28;20233;-79
2022/03/12 07:27:10;;;;;;;2.20;0.70;;;22.90;99.90;;;;;;5092539;28;20184;-81
2022/03/12 07:29:42;;;;;;;2.05;0.40;;;22.90;99.90;;;;;;5089290;28;20188;-80
2022/03/12 07:32:13;;;;;;;2.05;0.52;;;22.80;99.90;;;;;;5092743;28;20197;-81
2022/03/12 07:34:44;;;;;;;1.40;0.50;;;22.80;99.90;;;;;;5092885;28;20181;-81
2022/03/12 07:37:14;;;;;;;1.80;0.52;;;22.70;99.90;;;;;;5092431;28;20223;-80
2022/03/12 07:39:45;;;;;;;1.60;0.65;;;22.70;99.90;;;;;;5092471;28;20188;-79
2022/03/12 07:42:16;;;;;;;3.60;0.80;;;22.60;99.90;;;;;;5092229;28;20570;-79
2022/03/12 07:44:49;;;;;;;3.03;0.70;;;22.60;99.90;;;;;;5092880;28;20188;-79
2022/03/12 07:47:20;;;;;;;4.10;0.80;;;22.50;99.90;;;;;;5092242;28;20361;-79
2022/03/12 07:49:50;;;;;;;3.30;0.80;;;22.50;99.90;;;;;;5092107;28;20592;-81
2022/03/12 07:52:21;;;;;;;1.83;0.60;;;22.40;99.90;;;;;;5092457;28;20708;-80
2022/03/12 07:54:51;;;;;;;2.63;0.55;;;22.30;99.90;;;;;;5092675;28;20189;-80
2022/03/12 07:57:26;;;;;;;1.92;0.50;;;22.30;99.90;;;;;;5092150;28;20586;-81
2022/03/12 07:59:59;;;;;;;3.30;0.70;;;22.20;99.90;;;;;;5092531;28;20238;-79
2022/03/12 08:02:30;;;;;;;2.38;0.70;;;22.10;99.90;;;;;;5076555;28;20212;-80
2022/03/12 08:05:00;;;;;;;4.40;0.70;;;22.10;99.90;;;;;;5092020;28;20189;-80
2022/03/12 08:07:32;;;;;;;3.78;0.60;;;22.00;99.90;;;;;;5091178;28;20246;-80
2022/03/12 08:10:02;;;;;;;2.33;0.60;;;22.00;99.90;;;;;;5094752;28;20220;-81
2022/03/12 08:12:35;;;;;;;2.10;0.75;;;21.90;99.90;;;;;;5096321;28;20608;-79
2022/03/12 08:15:11;;;;;;;2.17;0.80;;;22.00;99.90;;;;;;5085078;28;20188;-80
2022/03/12 08:17:42;;;;;;;1.63;0.65;;;21.90;99.90;;;;;;5092592;28;20180;-80
2022/03/12 08:20:14;;;;;;;2.40;0.80;;;21.90;99.90;;;;;;5095875;28;20188;-80
2022/03/12 08:22:45;;;;;;;2.20;1.10;;;21.90;99.90;;;;;;5096006;28;20208;-84
2022/03/12 08:25:17;;;;;;;2.10;0.80;;;21.80;99.90;;;;;;5096072;28;20644;-84
2022/03/12 08:27:48;;;;;;;1.73;1.00;;;21.70;99.90;;;;;;5095688;28;20188;-83
2022/03/12 08:30:20;;;;;;;2.80;0.90;;;21.70;99.90;;;;;;5095380;28;20236;-82
2022/03/12 08:32:52;;;;;;;3.70;0.80;;;21.60;99.90;;;;;;5095767;28;20237;-80
2022/03/12 08:35:23;;;;;;;1.95;0.60;;;21.60;99.90;;;;;;5095865;28;20189;-84
2022/03/12 08:37:53;;;;;;;2.83;0.60;;;21.60;99.90;;;;;;5095642;28;20687;-80
2022/03/12 08:40:25;;;;;;;1.63;0.70;;;21.50;99.90;;;;;;5095183;28;20215;-80
2022/03/12 08:42:56;;;;;;;3.17;0.85;;;21.50;99.90;;;;;;5095331;28;20200;-79
2022/03/12 08:45:29;;;;;;;4.57;0.85;;;21.50;99.90;;;;;;5095463;28;20238;-79
2022/03/12 08:48:00;;;;;;;2.20;0.63;;;21.50;99.90;;;;;;5095080;28;20550;-80
2022/03/12 08:50:30;;;;;;;1.15;0.50;;;21.50;99.90;;;;;;5094159;28;20644;-80
2022/03/12 08:53:01;;;;;;;1.88;0.68;;;21.50;99.90;;;;;;5095306;28;20188;-82
2022/03/12 08:55:32;;;;;;;2.72;0.50;;;21.50;99.90;;;;;;5094223;28;20188;-83
2022/03/12 08:58:02;;;;;;;2.60;0.82;;;21.40;99.90;;;;;;5094845;28;20544;-82
2022/03/12 09:00:35;;;;;;;5.25;0.88;;;21.40;99.90;;;;;;5094580;28;20200;-83
2022/03/12 09:03:07;;;;;;;4.65;1.15;;;21.40;99.90;;;;;;5091947;28;20188;-82
2022/03/12 09:05:38;;;;;;;2.47;1.00;;;21.40;99.90;;;;;;5095281;28;20636;-84
2022/03/12 09:08:10;;;;;;;3.60;1.00;;;21.40;99.90;;;;;;5092156;28;20216;-80
2022/03/12 09:10:40;;;;;;;6.10;0.95;;;21.40;99.90;;;;;;5091378;28;20596;-79
2022/03/12 09:13:14;;;;;;;3.92;1.00;;;21.30;99.90;;;;;;5094555;28;20188;-79
2022/03/12 09:15:46;;;;;;;3.83;0.88;;;21.30;99.90;;;;;;5091825;28;20527;-80
2022/03/12 09:18:17;;;;;;;4.10;1.20;;;21.20;99.90;;;;;;5094407;28;20192;-79
2022/03/12 09:20:48;;;;;;;2.83;1.00;;;21.20;99.90;;;;;;5093891;28;20196;-79
2022/03/12 09:23:20;;;;;;;2.53;1.10;;;21.20;99.90;;;;;;5094725;28;20261;-80
2022/03/12 09:25:52;;;;;;;3.45;1.00;;;21.20;99.90;;;;;;5094466;28;20234;-79
2022/03/12 09:28:24;;;;;;;3.03;1.25;;;21.20;99.90;;;;;;5094739;28;20187;-80
2022/03/12 09:30:57;;;;;;;3.13;0.88;;;21.10;99.90;;;;;;5094241;28;20184;-80
2022/03/12 09:33:28;;;;;;;5.00;0.90;;;21.10;99.90;;;;;;5094104;28;20184;-80
2022/03/12 09:35:58;;;;;;;2.80;0.77;;;21.20;99.90;;;;;;5094441;28;20238;-79
2022/03/12 09:38:29;;;;;;;2.63;0.82;;;21.20;99.90;;;;;;5094602;28;20185;-79
2022/03/12 09:41:00;;;;;;;3.10;0.70;;;21.20;99.90;;;;;;5094499;28;20646;-79
2022/03/12 09:43:30;;;;;;;3.75;1.02;;;21.20;99.90;;;;;;5093368;28;20180;-79
2022/03/12 09:46:03;;;;;;;2.53;1.10;;;21.10;99.90;;;;;;5094003;28;20258;-80
2022/03/12 09:48:34;;;;;;;3.35;1.00;;;21.20;99.90;;;;;;5094146;28;20672;-80
2022/03/12 09:51:04;;;;;;;2.70;1.00;;;21.10;99.90;;;;;;5094100;28;20187;-79
2022/03/12 09:53:35;;;;;;;3.75;1.27;;;21.00;99.90;;;;;;5094248;28;20185;-79
2022/03/12 09:56:06;;;;;;;4.80;1.00;;;21.00;99.90;;;;;;5091322;28;20301;-79
2022/03/12 09:58:37;;;;;;;4.25;1.10;;;20.90;99.90;;;;;;5094322;28;20640;-79
2022/03/12 10:01:12;;;;;;;3.75;1.00;;;21.00;99.90;;;;;;5093712;28;20193;-80
2022/03/12 10:03:43;;;;;;;3.13;0.93;;;21.00;99.90;;;;;;5090563;28;20275;-80
2022/03/12 10:06:15;;;;;;;2.25;0.88;;;20.90;99.90;;;;;;5093753;28;20184;-80
2022/03/12 10:08:46;;;;;;;2.55;0.90;;;20.90;99.90;;;;;;5093365;28;20244;-79
2022/03/12 10:11:17;;;;;;;2.17;0.90;;;20.90;99.90;;;;;;5093622;28;20192;-79
2022/03/12 10:13:47;;;;;;;7.30;1.10;;;20.80;99.90;;;;;;5093829;28;20273;-80
2022/03/12 10:16:20;;;;;;;4.05;0.98;;;20.80;99.90;;;;;;5093640;28;20617;-79
2022/03/12 10:18:51;;;;;;;3.03;1.00;;;20.80;99.90;;;;;;5093438;28;20192;-80
2022/03/12 10:21:22;;;;;;;2.78;1.00;;;20.80;99.90;;;;;;5093514;28;20216;-80
2022/03/12 10:23:53;;;;;;;4.38;1.27;;;20.70;99.90;;;;;;5093529;28;20220;-80
2022/03/12 10:26:23;;;;;;;2.80;1.10;;;20.70;99.90;;;;;;5093188;28;20627;-80
2022/03/12 10:28:54;;;;;;;4.43;1.10;;;20.70;99.90;;;;;;5093025;28;20184;-80
2022/03/12 10:31:27;;;;;;;3.40;0.98;;;20.60;99.90;;;;;;5093119;28;20196;-79
2022/03/12 10:34:18;;;;;;;6.47;1.63;;;20.50;99.90;;;;;;5092611;28;20647;-79
2022/03/12 10:36:49;;;;;;;3.65;1.33;;;20.50;99.90;;;;;;5090995;28;20223;-80
2022/03/12 10:39:31;;;;;;;4.20;1.95;;;20.50;99.90;;;;;;5093667;28;20636;-78
2022/03/12 10:42:04;;;;;;;4.80;2.00;;;20.40;99.90;;;;;;5093421;28;20600;-79
2022/03/12 10:44:39;;;;;;;3.65;1.50;;;20.50;99.90;;;;;;5093441;28;20203;-79
2022/03/12 10:47:20;;;;;;;5.55;1.92;;;20.40;99.90;;;;;;5093334;28;20191;-79
2022/03/12 10:49:58;;;;;;;10.13;2.60;;;20.40;99.90;;;;;;5093710;28;20223;-79
2022/03/12 10:52:30;;;;;;;4.95;2.58;;;20.40;99.90;;;;;;5093552;28;20188;-79
2022/03/12 10:55:01;;;;;;;6.32;2.85;;;20.40;99.90;;;;;;5094071;28;20234;-79
2022/03/12 10:57:32;;;;;;;3.55;2.03;;;20.30;99.90;;;;;;5093824;28;20188;-79
2022/03/12 11:00:02;;;;;;;4.50;2.25;;;20.30;99.90;;;;;;5093272;28;20253;-79
2022/03/12 11:02:35;;;;;;;7.85;2.58;;;20.30;99.90;;;;;;5093556;28;20220;-79
2022/03/12 11:05:06;;;;;;;4.28;2.10;;;20.20;99.90;;;;;;5093445;28;20192;-80
2022/03/12 11:07:37;;;;;;;4.72;1.83;;;20.30;99.90;;;;;;5093151;28;20226;-79
2022/03/12 11:10:08;;;;;;;5.15;2.00;;;20.20;99.90;;;;;;5093282;28;20601;-79
2022/03/12 11:12:39;;;;;;;2.83;1.55;;;20.20;99.90;;;;;;5093145;28;20188;-79
2022/03/12 11:15:15;;;;;;;6.43;1.70;;;20.20;99.90;;;;;;5093324;28;20196;-79
2022/03/12 11:17:49;;;;;;;4.25;1.48;;;20.20;99.90;;;;;;5093243;28;20280;-79
2022/03/12 11:20:28;;;;;;;5.95;1.45;;;20.20;99.90;;;;;;5093312;28;20189;-79
2022/03/12 11:23:12;;;;;;;4.20;1.23;;;20.20;99.90;;;;;;5093300;28;20216;-80
2022/03/12 11:25:58;;;;;;;7.45;1.83;;;20.10;99.90;;;;;;5093220;28;20678;-80
2022/03/12 11:28:30;;;;;;;4.40;1.10;;;20.10;99.90;;;;;;5093112;28;20218;-80
2022/03/12 11:31:00;;;;;;;3.83;1.10;;;20.10;99.90;;;;;;5093295;28;20199;-79
2022/03/12 11:33:34;;;;;;;3.90;1.00;;;20.00;99.90;;;;;;5093242;28;20193;-79
2022/03/12 11:36:09;;;;;;;3.88;1.40;;;20.00;99.90;;;;;;5093081;28;20243;-79
2022/03/12 11:38:41;;;;;;;4.18;1.40;;;19.90;99.90;;;;;;5093398;28;20195;-79
2022/03/12 11:41:23;;;;;;;5.22;1.30;;;19.90;99.90;;;;;;5093232;28;20193;-79
2022/03/12 11:43:53;;;;;;;3.08;1.25;;;19.90;99.90;;;;;;5093676;28;20196;-79
2022/03/12 11:46:24;;;;;;;4.85;1.58;;;19.90;99.90;;;;;;5097127;28;20192;-80
2022/03/12 11:48:57;;;;;;;3.45;1.52;;;19.90;99.90;;;;;;5097055;28;20221;-79
2022/03/12 11:51:28;;;;;;;5.75;1.80;;;19.90;99.90;;;;;;5097035;28;20184;-79
2022/03/12 11:53:59;;;;;;;2.40;1.50;;;19.80;99.90;;;;;;5096995;28;20280;-79
2022/03/12 11:56:32;;;;;;;3.45;1.08;;;19.80;99.90;;;;;;5096800;28;20257;-79
2022/03/12 11:59:02;;;;;;;3.40;1.55;;;19.80;99.90;;;;;;5096798;28;20195;-80
2022/03/12 12:01:37;;;;;;;5.28;1.55;;;19.70;99.90;;;;;;5096735;28;20640;-79
2022/03/12 12:04:10;;;;;;;5.63;1.40;;;19.70;99.90;;;;;;5096785;28;20188;-79
2022/03/12 12:06:41;;;;;;;3.53;1.45;;;19.70;99.90;;;;;;5096649;28;20188;-80
2022/03/12 12:09:11;;;;;;;4.82;1.60;;;19.60;99.90;;;;;;5095509;28;20196;-79
2022/03/12 12:11:42;;;;;;;6.18;1.60;;;19.60;99.90;;;;;;5096477;28;20245;-80
2022/03/12 12:14:13;;;;;;;3.67;1.35;;;19.50;99.90;;;;;;5096547;28;20188;-78
2022/03/12 12:16:45;;;;;;;4.70;1.40;;;19.60;99.90;;;;;;5096586;28;20188;-80
2022/03/12 12:19:18;;;;;;;5.93;1.60;;;19.60;99.90;;;;;;5096375;28;20664;-78
2022/03/12 12:21:48;;;;;;;3.40;1.40;;;19.60;99.90;;;;;;5096367;28;20185;-79
2022/03/12 12:24:30;;;;;;;4.43;1.30;;;19.60;99.90;;;;;;5096377;28;20222;-79
2022/03/12 12:27:02;;;;;;;4.50;1.20;;;19.60;99.90;;;;;;5096078;28;20184;-79
2022/03/12 12:29:51;;;;;;;4.28;1.17;;;19.60;99.90;;;;;;5096309;28;20192;-80
2022/03/12 12:32:22;;;;;;;6.90;1.98;;;19.50;99.90;;;;;;5096347;28;20193;-79
2022/03/12 12:35:15;;;;;;;6.72;1.70;;;19.50;99.90;;;;;;5096222;28;20557;-80
2022/03/12 12:37:54;;;;;;;4.90;1.35;;;19.40;99.90;;;;;;5095777;28;20263;-80
2022/03/12 12:40:32;;;;;;;4.03;1.42;;;19.50;99.90;;;;;;5095914;28;20192;-80
2022/03/12 12:43:07;;;;;;;3.88;1.45;;;19.40;99.90;;;;;;5096032;28;20353;-79
2022/03/12 12:45:45;;;;;;;4.40;1.45;;;19.40;99.90;;;;;;5096334;28;20192;-79
2022/03/12 12:48:19;;;;;;;2.85;1.55;;;19.40;99.90;;;;;;5095897;28;20242;-79
2022/03/12 12:51:10;;;;;;;6.30;1.85;;;19.40;99.90;;;;;;5096224;28;20189;-80
2022/03/12 12:53:42;;;;;;;5.55;1.70;;;19.40;99.90;;;;;;5095902;28;20192;-79
2022/03/12 12:56:28;;;;;;;3.38;1.50;;;19.40;99.90;;;;;;5094443;28;20192;-79
2022/03/12 12:59:15;;;;;;;4.30;1.40;;;19.30;99.90;;;;;;5095615;28;20185;-79
2022/03/12 13:01:52;;;;;;;3.92;1.52;;;19.30;99.90;;;;;;5095688;28;20192;-79
2022/03/12 13:04:51;;;;;;;4.97;1.50;;;19.20;99.90;;;;;;5095712;28;20237;-79
2022/03/12 13:07:25;;;;;;;5.80;1.48;;;19.10;99.90;;;;;;5095199;28;20737;-79
2022/03/12 13:10:01;;;;;;;3.40;1.40;;;19.10;99.90;;;;;;5095237;28;20196;-79
2022/03/12 13:12:42;;;;;;;5.13;1.40;;;19.00;99.90;;;;;;5095510;28;20234;-79
2022/03/12 13:15:23;;;;;;;5.93;1.42;;;19.00;99.90;;;;;;5075254;28;20195;-79
2022/03/12 13:17:56;;;;;;;4.68;1.58;;;19.00;99.90;;;;;;5075047;28;20193;-79